CDT,Max TemperatureF,Mean TemperatureF,Min TemperatureF,Max Dew PointF,MeanDew PointF,Min DewpointF,Max Humidity, Mean Humidity, Min Humidity, Max Sea Level PressureIn, Mean Sea Level PressureIn, Min Sea Level PressureIn, Max VisibilityMiles, Mean VisibilityMiles, Min VisibilityMiles, Max Wind SpeedMPH, Mean Wind SpeedMPH, Max Gust SpeedMPH,PrecipitationIn, CloudCover, Events, WindDirDegrees
2012-5-1,68,60,51,64,56,50,100,91,81,30.01,29.88,29.79,10,5,1,21,7,26,0.81,7,Rain,125
2012-5-2,82,71,60,67,63,59,97,78,58,29.97,29.85,29.77,10,10,2,23,9,30,0.06,4,Rain,195
2012-5-3,84,76,67,69,66,64,87,75,62,29.95,29.89,29.78,10,10,10,28,13,33,T,3,,201
2012-5-4,78,70,62,63,62,59,93,76,58,29.99,29.92,29.88,10,9,2,23,6,29,0.54,4,Rain-Thunderstorm,131
2012-5-5,81,69,57,67,60,55,93,78,62,29.96,29.93,29.90,10,7,2,20,10,26,0.00,2,,73
2012-5-6,87,75,62,72,64,59,93,72,50,29.94,29.87,29.80,10,7,3,15,7,20,0.02,1,Rain-Thunderstorm,133
2012-5-7,68,63,57,64,60,51,93,83,73,29.91,29.87,29.79,10,10,5,17,5,23,0.04,6,Rain,350
2012-5-8,71,63,54,50,45,39,77,55,33,29.95,29.92,29.90,10,10,10,20,7,28,0.00,2,,300
2012-5-9,70,59,48,48,44,42,80,60,39,29.97,29.95,29.92,10,10,10,14,6,21,0.00,2,,325
2012-5-10,72,58,43,47,42,37,93,62,31,30.04,30.00,29.96,10,10,5,12,2,16,0.00,0,,111
2012-5-11,78,63,48,50,45,38,77,55,33,30.14,30.09,30.04,10,10,10,20,8,25,0.00,1,,177
2012-5-12,69,61,53,61,54,45,90,75,60,30.25,30.20,30.14,10,9,6,15,6,18,0.01,6,Rain-Thunderstorm,46
2012-5-13,74,62,50,46,39,31,77,50,22,30.25,30.18,30.11,10,10,10,15,6,22,0.00,2,,45
2012-5-14,79,62,44,47,39,32,83,51,19,30.14,30.08,30.01,10,10,10,10,1,13,0.00,0,,323
2012-5-15,84,67,50,53,47,41,83,56,28,30.03,29.96,29.86,10,10,10,20,7,25,T,0,,249
2012-5-16,72,63,53,52,41,30,72,52,31,30.11,30.04,29.90,10,10,10,22,8,26,0.00,0,,47
2012-5-17,78,62,45,39,35,31,70,45,20,30.15,30.08,30.00,10,10,10,13,7,18,0.00,0,,116
2012-5-18,86,71,55,52,45,36,57,41,25,30.05,29.99,29.92,10,10,10,14,7,18,0.00,0,,158
2012-5-19,90,76,62,60,56,51,73,52,31,30.01,29.98,29.93,10,10,9,16,8,21,0.00,0,,181
2012-5-20,88,75,61,63,60,51,73,57,40,30.09,30.01,29.96,10,10,9,23,10,29,0.09,2,Rain-Thunderstorm,223
2012-5-21,73,63,52,49,46,43,77,55,33,30.18,30.13,30.09,10,10,10,16,6,22,0.00,1,,22
2012-5-22,76,62,47,49,45,42,93,63,33,30.12,30.02,29.90,10,10,10,10,2,16,0.00,0,,88
2012-5-23,82,67,52,48,45,42,66,46,26,29.90,29.81,29.71,10,10,10,21,10,28,0.00,0,,161
2012-5-24,90,77,63,61,54,48,63,48,32,29.73,29.65,29.54,10,10,10,32,18,43,0.00,1,,183
2012-5-25,87,74,61,63,56,50,90,61,31,30.03,29.94,29.74,10,10,10,17,5,22,0.00,1,,63
2012-5-26,91,79,67,70,61,46,76,59,41,30.08,30.01,29.95,10,10,10,16,7,22,0.00,1,,103
2012-5-27,93,83,72,68,63,59,73,53,33,29.97,29.90,29.81,10,10,10,20,11,24,0.00,0,,198
2012-5-28,91,80,69,67,64,62,73,57,41,29.83,29.78,29.72,10,10,10,29,13,33,T,1,Rain,217
2012-5-29,85,72,59,62,51,44,80,53,26,29.90,29.86,29.80,10,10,10,18,5,24,0.00,0,,282
2012-5-30,73,63,52,47,43,40,83,57,31,29.96,29.93,29.89,10,10,10,16,6,24,0.00,0,,347
2012-5-31,58,53,48,49,46,43,93,78,62,29.94,29.89,29.87,10,7,2,24,13,30,0.87,7,Rain,46